sensor_id;sensor_type;location;lat;lon;timestamp;pressure;altitude;pressure_sealevel;temperature;humidity
71735;BME280;59577;52.122;5.406;2023-04-25T00:00:53;101146.75;;;5.94;91.05
71735;BME280;59577;52.122;5.406;2023-04-25T00:03:20;101151.63;;;5.92;91.35
71735;BME280;59577;52.122;5.406;2023-04-25T00:05:47;101162.03;;;5.84;91.46
71735;BME280;59577;52.122;5.406;2023-04-25T00:08:14;101164.84;;;5.79;91.30
71735;BME280;59577;52.122;5.406;2023-04-25T00:10:41;101160.91;;;5.77;91.77
71735;BME280;59577;52.122;5.406;2023-04-25T00:13:07;101167.84;;;5.78;91.83
71735;BME280;59577;52.122;5.406;2023-04-25T00:15:36;101169.13;;;5.80;92.18
71735;BME280;59577;52.122;5.406;2023-04-25T00:18:04;101171.69;;;5.86;92.59
71735;BME280;59577;52.122;5.406;2023-04-25T00:20:32;101175.81;;;5.92;92.29
71735;BME280;59577;52.122;5.406;2023-04-25T00:22:58;101169.53;;;5.96;92.63
71735;BME280;59577;52.122;5.406;2023-04-25T00:25:25;101173.34;;;6.04;92.62
71735;BME280;59577;52.122;5.406;2023-04-25T00:27:51;101167.66;;;6.06;92.13
71735;BME280;59577;52.122;5.406;2023-04-25T00:30:18;101180.16;;;6.10;92.26
71735;BME280;59577;52.122;5.406;2023-04-25T00:32:44;101183.81;;;6.14;92.43
71735;BME280;59577;52.122;5.406;2023-04-25T00:35:12;101173.53;;;6.16;92.30
71735;BME280;59577;52.122;5.406;2023-04-25T00:37:38;101178.91;;;6.16;91.73
71735;BME280;59577;52.122;5.406;2023-04-25T00:40:06;101174.31;;;6.17;92.03
71735;BME280;59577;52.122;5.406;2023-04-25T00:42:33;101182.06;;;6.18;91.71
71735;BME280;59577;52.122;5.406;2023-04-25T00:45:01;101174.31;;;6.17;91.58
71735;BME280;59577;52.122;5.406;2023-04-25T00:47:28;101187.59;;;6.13;91.23
71735;BME280;59577;52.122;5.406;2023-04-25T00:49:55;101180.94;;;6.11;91.22
71735;BME280;59577;52.122;5.406;2023-04-25T00:52:21;101180.16;;;6.10;91.23
71735;BME280;59577;52.122;5.406;2023-04-25T00:54:48;101177.16;;;6.12;91.15
71735;BME280;59577;52.122;5.406;2023-04-25T00:57:15;101178.59;;;6.09;91.38
71735;BME280;59577;52.122;5.406;2023-04-25T00:59:45;101181.56;;;6.08;91.19
71735;BME280;59577;52.122;5.406;2023-04-25T01:02:12;101173.81;;;6.06;91.55
71735;BME280;59577;52.122;5.406;2023-04-25T01:04:39;101177.59;;;6.05;91.71
71735;BME280;59577;52.122;5.406;2023-04-25T01:07:06;101177.13;;;6.03;91.79
71735;BME280;59577;52.122;5.406;2023-04-25T01:09:33;101181.25;;;6.00;91.71
71735;BME280;59577;52.122;5.406;2023-04-25T01:11:59;101181.06;;;5.97;91.86
71735;BME280;59577;52.122;5.406;2023-04-25T01:14:27;101185.44;;;5.93;91.86
71735;BME280;59577;52.122;5.406;2023-04-25T01:16:53;101184.50;;;5.89;91.41
71735;BME280;59577;52.122;5.406;2023-04-25T01:19:21;101188.88;;;5.84;91.64
71735;BME280;59577;52.122;5.406;2023-04-25T01:21:47;101187.16;;;5.80;91.35
71735;BME280;59577;52.122;5.406;2023-04-25T01:24:14;101188.84;;;5.76;91.44
71735;BME280;59577;52.122;5.406;2023-04-25T01:26:42;101194.66;;;5.69;91.45
71735;BME280;59577;52.122;5.406;2023-04-25T01:29:17;101200.97;;;5.64;91.23
71735;BME280;59577;52.122;5.406;2023-04-25T01:31:44;101201.28;;;5.63;91.52
71735;BME280;59577;52.122;5.406;2023-04-25T01:34:12;101203.97;;;5.63;91.55
71735;BME280;59577;52.122;5.406;2023-04-25T01:36:39;101203.81;;;5.59;91.42
71735;BME280;59577;52.122;5.406;2023-04-25T01:39:06;101205.19;;;5.57;91.34
71735;BME280;59577;52.122;5.406;2023-04-25T01:41:33;101205.50;;;5.55;91.38
71735;BME280;59577;52.122;5.406;2023-04-25T01:44:01;101205.31;;;5.52;91.01
71735;BME280;59577;52.122;5.406;2023-04-25T01:46:28;101206.13;;;5.52;91.07
71735;BME280;59577;52.122;5.406;2023-04-25T01:48:59;101210.50;;;5.48;91.23
71735;BME280;59577;52.122;5.406;2023-04-25T01:51:26;101213.31;;;5.43;90.68
71735;BME280;59577;52.122;5.406;2023-04-25T01:53:53;101218.03;;;5.37;90.69
71735;BME280;59577;52.122;5.406;2023-04-25T01:56:20;101218.66;;;5.34;90.96
71735;BME280;59577;52.122;5.406;2023-04-25T01:58:47;101223.06;;;5.30;90.83
71735;BME280;59577;52.122;5.406;2023-04-25T02:01:13;101221.75;;;5.27;90.89
71735;BME280;59577;52.122;5.406;2023-04-25T02:03:41;101218.09;;;5.23;90.87
71735;BME280;59577;52.122;5.406;2023-04-25T02:06:07;101225.81;;;5.16;90.88
71735;BME280;59577;52.122;5.406;2023-04-25T02:08:34;101220.25;;;5.13;91.39
71735;BME280;59577;52.122;5.406;2023-04-25T02:11:01;101226.22;;;5.09;91.40
71735;BME280;59577;52.122;5.406;2023-04-25T02:13:29;101225.25;;;5.05;91.07
71735;BME280;59577;52.122;5.406;2023-04-25T02:15:56;101227.75;;;5.02;91.25
71735;BME280;59577;52.122;5.406;2023-04-25T02:18:23;101228.34;;;4.99;91.21
71735;BME280;59577;52.122;5.406;2023-04-25T02:20:49;101233.53;;;4.95;91.36
71735;BME280;59577;52.122;5.406;2023-04-25T02:23:16;101234.91;;;4.93;91.72
71735;BME280;59577;52.122;5.406;2023-04-25T02:25:42;101237.91;;;4.91;91.44
71735;BME280;59577;52.122;5.406;2023-04-25T02:28:15;101235.34;;;4.86;91.38
71735;BME280;59577;52.122;5.406;2023-04-25T02:30:42;101230.91;;;4.81;91.45
71735;BME280;59577;52.122;5.406;2023-04-25T02:33:08;101231.50;;;4.78;91.34
71735;BME280;59577;52.122;5.406;2023-04-25T02:35:35;101234.00;;;4.75;91.09
71735;BME280;59577;52.122;5.406;2023-04-25T02:38:05;101234.00;;;4.75;91.28
71735;BME280;59577;52.122;5.406;2023-04-25T02:40:31;101232.09;;;4.75;91.84
71735;BME280;59577;52.122;5.406;2023-04-25T02:42:58;101237.94;;;4.77;91.40
71735;BME280;59577;52.122;5.406;2023-04-25T02:45:24;101240.31;;;4.79;91.46
71735;BME280;59577;52.122;5.406;2023-04-25T02:47:51;101230.91;;;4.81;91.34
71735;BME280;59577;52.122;5.406;2023-04-25T02:50:18;101232.28;;;4.79;91.91
71735;BME280;59577;52.122;5.406;2023-04-25T02:52:45;101238.66;;;4.83;91.92
71735;BME280;59577;52.122;5.406;2023-04-25T02:55:13;101234.84;;;4.84;91.44
71735;BME280;59577;52.122;5.406;2023-04-25T02:57:39;101235.34;;;4.86;91.46
71735;BME280;59577;52.122;5.406;2023-04-25T03:00:06;101234.56;;;4.85;91.84
71735;BME280;59577;52.122;5.406;2023-04-25T03:02:33;101245.75;;;4.87;92.04
71735;BME280;59577;52.122;5.406;2023-04-25T03:05:00;101246.75;;;4.92;91.83
71735;BME280;59577;52.122;5.406;2023-04-25T03:07:26;101244.38;;;4.90;91.65
71735;BME280;59577;52.122;5.406;2023-04-25T03:09:53;101243.56;;;4.89;91.97
71735;BME280;59577;52.122;5.406;2023-04-25T03:12:19;101244.19;;;4.86;91.53
71735;BME280;59577;52.122;5.406;2023-04-25T03:14:45;101244.00;;;4.83;91.83
71735;BME280;59577;52.122;5.406;2023-04-25T03:17:12;101243.31;;;4.77;91.45
71735;BME280;59577;52.122;5.406;2023-04-25T03:19:39;101247.69;;;4.73;91.70
71735;BME280;59577;52.122;5.406;2023-04-25T03:22:05;101256.63;;;4.68;91.70
71735;BME280;59577;52.122;5.406;2023-04-25T03:24:32;101252.69;;;4.66;91.51
71735;BME280;59577;52.122;5.406;2023-04-25T03:26:58;101256.75;;;4.63;92.39
71735;BME280;59577;52.122;5.406;2023-04-25T03:29:25;101257.38;;;4.60;91.71
71735;BME280;59577;52.122;5.406;2023-04-25T03:31:53;101260.53;;;4.62;92.40
71735;BME280;59577;52.122;5.406;2023-04-25T03:34:20;101258.16;;;4.61;91.62
71735;BME280;59577;52.122;5.406;2023-04-25T03:36:50;101265.41;;;4.60;91.90
71735;BME280;59577;52.122;5.406;2023-04-25T03:39:16;101266.97;;;4.61;91.83
71735;BME280;59577;52.122;5.406;2023-04-25T03:41:43;101261.03;;;4.64;92.60
71735;BME280;59577;52.122;5.406;2023-04-25T03:44:10;101268.47;;;4.67;92.66
71735;BME280;59577;52.122;5.406;2023-04-25T03:46:36;101270.75;;;4.74;92.80
71735;BME280;59577;52.122;5.406;2023-04-25T03:49:03;101274.41;;;4.78;92.67
71735;BME280;59577;52.122;5.406;2023-04-25T03:51:29;101274.00;;;4.85;92.30
71735;BME280;59577;52.122;5.406;2023-04-25T03:53:57;101273.88;;;4.90;92.37
71735;BME280;59577;52.122;5.406;2023-04-25T03:56:23;101276.94;;;4.97;92.06
71735;BME280;59577;52.122;5.406;2023-04-25T03:58:50;101279.50;;;5.02;92.34
71735;BME280;59577;52.122;5.406;2023-04-25T04:01:16;101275.41;;;5.05;92.33
71735;BME280;59577;52.122;5.406;2023-04-25T04:03:43;101280.47;;;5.06;91.78
71735;BME280;59577;52.122;5.406;2023-04-25T04:06:10;101273.25;;;5.07;92.03
71735;BME280;59577;52.122;5.406;2023-04-25T04:08:37;101288.22;;;5.08;92.16
71735;BME280;59577;52.122;5.406;2023-04-25T04:11:03;101280.66;;;5.10;92.14
71735;BME280;59577;52.122;5.406;2023-04-25T04:13:30;101290.00;;;5.13;91.61
71735;BME280;59577;52.122;5.406;2023-04-25T04:15:56;101286.22;;;5.14;92.02
71735;BME280;59577;52.122;5.406;2023-04-25T04:18:23;101287.34;;;5.13;91.70
71735;BME280;59577;52.122;5.406;2023-04-25T04:20:50;101299.16;;;5.12;91.74
71735;BME280;59577;52.122;5.406;2023-04-25T04:23:17;101290.31;;;5.11;91.76
71735;BME280;59577;52.122;5.406;2023-04-25T04:25:43;101291.41;;;5.10;91.76
71735;BME280;59577;52.122;5.406;2023-04-25T04:28:10;101291.09;;;5.12;91.99
71735;BME280;59577;52.122;5.406;2023-04-25T04:30:37;101293.78;;;5.12;91.42
71735;BME280;59577;52.122;5.406;2023-04-25T04:33:05;101305.63;;;5.11;91.49
71735;BME280;59577;52.122;5.406;2023-04-25T04:35:32;101296.28;;;5.08;91.72
71735;BME280;59577;52.122;5.406;2023-04-25T04:37:58;101304.31;;;5.08;91.41
71735;BME280;59577;52.122;5.406;2023-04-25T04:40:25;101313.16;;;5.08;91.49
71735;BME280;59577;52.122;5.406;2023-04-25T04:42:51;101300.38;;;5.05;90.90
71735;BME280;59577;52.122;5.406;2023-04-25T04:45:19;101304.63;;;5.06;90.77
71735;BME280;59577;52.122;5.406;2023-04-25T04:47:46;101314.28;;;5.07;90.88
71735;BME280;59577;52.122;5.406;2023-04-25T04:50:15;101313.16;;;5.08;90.71
71735;BME280;59577;52.122;5.406;2023-04-25T04:52:42;101315.25;;;5.12;90.68
71735;BME280;59577;52.122;5.406;2023-04-25T04:55:09;101316.25;;;5.16;91.59
71735;BME280;59577;52.122;5.406;2023-04-25T04:57:35;101323.06;;;5.22;91.20
71735;BME280;59577;52.122;5.406;2023-04-25T05:00:03;101326.13;;;5.29;90.86
71735;BME280;59577;52.122;5.406;2023-04-25T05:02:38;101327.63;;;5.35;91.07
71735;BME280;59577;52.122;5.406;2023-04-25T05:05:05;101327.00;;;5.38;91.35
71735;BME280;59577;52.122;5.406;2023-04-25T05:07:32;101348.03;;;5.45;91.19
71735;BME280;59577;52.122;5.406;2023-04-25T05:09:59;101338.59;;;5.47;91.21
71735;BME280;59577;52.122;5.406;2023-04-25T05:12:30;101346.06;;;5.51;90.89
71735;BME280;59577;52.122;5.406;2023-04-25T05:14:57;101352.69;;;5.53;90.90
71735;BME280;59577;52.122;5.406;2023-04-25T05:17:27;101343.06;;;5.52;90.46
71735;BME280;59577;52.122;5.406;2023-04-25T05:19:58;101350.00;;;5.53;90.10
71735;BME280;59577;52.122;5.406;2023-04-25T05:22:25;101351.59;;;5.54;90.08
71735;BME280;59577;52.122;5.406;2023-04-25T05:24:52;101367.91;;;5.58;89.97
71735;BME280;59577;52.122;5.406;2023-04-25T05:27:21;101363.00;;;5.60;90.02
71735;BME280;59577;52.122;5.406;2023-04-25T05:29:48;101364.13;;;5.59;89.97
71735;BME280;59577;52.122;5.406;2023-04-25T05:32:14;101368.88;;;5.62;90.25
71735;BME280;59577;52.122;5.406;2023-04-25T05:34:41;101367.19;;;5.66;89.83
71735;BME280;59577;52.122;5.406;2023-04-25T05:37:08;101371.91;;;5.69;89.53
71735;BME280;59577;52.122;5.406;2023-04-25T05:39:34;101369.44;;;5.73;89.74
71735;BME280;59577;52.122;5.406;2023-04-25T05:42:01;101373.88;;;5.77;89.58
71735;BME280;59577;52.122;5.406;2023-04-25T05:44:28;101380.25;;;5.81;89.74
71735;BME280;59577;52.122;5.406;2023-04-25T05:46:54;101374.13;;;5.90;89.52
71735;BME280;59577;52.122;5.406;2023-04-25T05:49:21;101379.88;;;5.97;89.56
71735;BME280;59577;52.122;5.406;2023-04-25T05:51:48;101377.88;;;6.02;88.83
71735;BME280;59577;52.122;5.406;2023-04-25T05:54:14;101384.69;;;6.09;88.65
71735;BME280;59577;52.122;5.406;2023-04-25T05:56:41;101391.25;;;6.16;88.44
71735;BME280;59577;52.122;5.406;2023-04-25T05:59:07;101388.91;;;6.24;88.32
71735;BME280;59577;52.122;5.406;2023-04-25T06:01:34;101402.22;;;6.29;88.06
71735;BME280;59577;52.122;5.406;2023-04-25T06:04:01;101402.75;;;6.39;88.19
71735;BME280;59577;52.122;5.406;2023-04-25T06:06:28;101401.56;;;6.54;88.06
71735;BME280;59577;52.122;5.406;2023-04-25T06:08:55;101402.41;;;6.72;88.05
71735;BME280;59577;52.122;5.406;2023-04-25T06:11:22;101404.50;;;6.84;87.70
71735;BME280;59577;52.122;5.406;2023-04-25T06:13:48;101408.16;;;6.97;86.94
71735;BME280;59577;52.122;5.406;2023-04-25T06:16:15;101414.09;;;7.08;86.74
71735;BME280;59577;52.122;5.406;2023-04-25T06:18:42;101419.97;;;7.19;86.84
71735;BME280;59577;52.122;5.406;2023-04-25T06:21:08;101416.00;;;7.33;86.21
71735;BME280;59577;52.122;5.406;2023-04-25T06:23:34;101412.38;;;7.56;86.06
71735;BME280;59577;52.122;5.406;2023-04-25T06:26:01;101416.81;;;7.78;84.77
71735;BME280;59577;52.122;5.406;2023-04-25T06:28:28;101409.81;;;7.94;84.74
71735;BME280;59577;52.122;5.406;2023-04-25T06:30:54;101419.31;;;8.18;83.70
71735;BME280;59577;52.122;5.406;2023-04-25T06:33:20;101420.22;;;9.16;82.95
71735;BME280;59577;52.122;5.406;2023-04-25T06:35:48;101413.06;;;12.89;76.95
71735;BME280;59577;52.122;5.406;2023-04-25T06:38:15;101408.34;;;14.42;68.52
71735;BME280;59577;52.122;5.406;2023-04-25T06:40:41;101416.59;;;12.57;68.26
71735;BME280;59577;52.122;5.406;2023-04-25T06:43:08;101423.25;;;11.31;69.72
71735;BME280;59577;52.122;5.406;2023-04-25T06:45:34;101428.94;;;10.64;71.41
71735;BME280;59577;52.122;5.406;2023-04-25T06:48:01;101421.03;;;10.26;72.32
71735;BME280;59577;52.122;5.406;2023-04-25T06:50:29;101435.38;;;9.93;74.12
71735;BME280;59577;52.122;5.406;2023-04-25T06:52:55;101432.22;;;9.70;75.44
71735;BME280;59577;52.122;5.406;2023-04-25T06:55:22;101435.28;;;9.47;76.46
71735;BME280;59577;52.122;5.406;2023-04-25T06:57:48;101431.72;;;9.34;76.85
71735;BME280;59577;52.122;5.406;2023-04-25T07:00:15;101435.13;;;9.44;76.72
71735;BME280;59577;52.122;5.406;2023-04-25T07:02:42;101434.75;;;9.54;77.08
71735;BME280;59577;52.122;5.406;2023-04-25T07:05:09;101437.91;;;9.56;76.61
71735;BME280;59577;52.122;5.406;2023-04-25T07:07:36;101448.31;;;9.45;76.48
71735;BME280;59577;52.122;5.406;2023-04-25T07:10:03;101448.25;;;9.33;76.81
71735;BME280;59577;52.122;5.406;2023-04-25T07:12:30;101445.06;;;9.31;77.27
71735;BME280;59577;52.122;5.406;2023-04-25T07:14:56;101446.97;;;9.30;76.93
71735;BME280;59577;52.122;5.406;2023-04-25T07:17:23;101444.47;;;9.46;78.07
71735;BME280;59577;52.122;5.406;2023-04-25T07:19:49;101460.25;;;9.65;76.76
71735;BME280;59577;52.122;5.406;2023-04-25T07:22:16;101462.16;;;9.86;77.27
71735;BME280;59577;52.122;5.406;2023-04-25T07:24:42;101457.66;;;13.04;73.84
71735;BME280;59577;52.122;5.406;2023-04-25T07:27:09;101465.72;;;15.86;66.85
71735;BME280;59577;52.122;5.406;2023-04-25T07:29:35;101466.19;;;16.74;62.56
71735;BME280;59577;52.122;5.406;2023-04-25T07:32:03;101469.84;;;15.42;61.77
71735;BME280;59577;52.122;5.406;2023-04-25T07:34:30;101476.00;;;14.40;64.01
71735;BME280;59577;52.122;5.406;2023-04-25T07:36:58;101478.06;;;13.65;65.34
71735;BME280;59577;52.122;5.406;2023-04-25T07:39:26;101466.66;;;13.08;65.14
71735;BME280;59577;52.122;5.406;2023-04-25T07:41:52;101470.63;;;12.63;68.37
71735;BME280;59577;52.122;5.406;2023-04-25T07:44:20;101486.56;;;12.32;69.06
71735;BME280;59577;52.122;5.406;2023-04-25T07:46:47;101481.44;;;12.15;67.98
71735;BME280;59577;52.122;5.406;2023-04-25T07:49:25;101485.78;;;12.03;69.91
71735;BME280;59577;52.122;5.406;2023-04-25T07:51:52;101496.00;;;11.94;71.14
71735;BME280;59577;52.122;5.406;2023-04-25T07:54:19;101499.59;;;11.98;70.39
71735;BME280;59577;52.122;5.406;2023-04-25T07:56:46;101487.94;;;11.98;68.84
71735;BME280;59577;52.122;5.406;2023-04-25T07:59:18;101502.78;;;11.76;70.22
71735;BME280;59577;52.122;5.406;2023-04-25T08:01:45;101492.22;;;11.58;69.80
71735;BME280;59577;52.122;5.406;2023-04-25T08:04:11;101503.94;;;11.62;71.79
71735;BME280;59577;52.122;5.406;2023-04-25T08:06:38;101502.00;;;12.44;69.78
71735;BME280;59577;52.122;5.406;2023-04-25T08:09:05;101502.53;;;13.13;69.89
71735;BME280;59577;52.122;5.406;2023-04-25T08:11:32;101513.34;;;13.61;68.41
71735;BME280;59577;52.122;5.406;2023-04-25T08:13:58;101511.22;;;13.70;67.44
71735;BME280;59577;52.122;5.406;2023-04-25T08:16:25;101511.59;;;13.88;65.25
71735;BME280;59577;52.122;5.406;2023-04-25T08:18:52;101518.91;;;13.84;64.03
71735;BME280;59577;52.122;5.406;2023-04-25T08:21:19;101516.88;;;13.81;62.98
71735;BME280;59577;52.122;5.406;2023-04-25T08:23:46;101531.38;;;13.50;66.37
71735;BME280;59577;52.122;5.406;2023-04-25T08:26:13;101539.47;;;12.54;68.74
71735;BME280;59577;52.122;5.406;2023-04-25T08:28:39;101560.09;;;11.62;69.37
71735;BME280;59577;52.122;5.406;2023-04-25T08:31:06;101547.34;;;11.01;70.24
71735;BME280;59577;52.122;5.406;2023-04-25T08:33:33;101555.16;;;10.69;70.32
71735;BME280;59577;52.122;5.406;2023-04-25T08:35:59;101552.72;;;10.43;70.15
71735;BME280;59577;52.122;5.406;2023-04-25T08:38:26;101555.94;;;10.36;69.86
71735;BME280;59577;52.122;5.406;2023-04-25T08:40:54;101554.50;;;10.39;68.70
71735;BME280;59577;52.122;5.406;2023-04-25T08:43:23;101554.53;;;10.51;69.47
71735;BME280;59577;52.122;5.406;2023-04-25T08:45:52;101558.69;;;10.69;69.62
71735;BME280;59577;52.122;5.406;2023-04-25T08:48:23;101562.31;;;10.86;69.18
71735;BME280;59577;52.122;5.406;2023-04-25T08:50:53;101564.59;;;10.96;68.76
71735;BME280;59577;52.122;5.406;2023-04-25T08:53:30;101575.13;;;11.22;69.33
71735;BME280;59577;52.122;5.406;2023-04-25T08:56:00;101569.09;;;12.03;71.31
71735;BME280;59577;52.122;5.406;2023-04-25T08:58:30;101575.16;;;13.45;70.85
71735;BME280;59577;52.122;5.406;2023-04-25T09:00:58;101576.50;;;14.64;68.91
71735;BME280;59577;52.122;5.406;2023-04-25T09:03:26;101579.72;;;15.16;67.06
71735;BME280;59577;52.122;5.406;2023-04-25T09:05:53;101585.19;;;14.93;66.54
71735;BME280;59577;52.122;5.406;2023-04-25T09:08:21;101586.88;;;15.25;65.67
71735;BME280;59577;52.122;5.406;2023-04-25T09:10:48;101591.78;;;15.65;64.50
71735;BME280;59577;52.122;5.406;2023-04-25T09:13:17;101592.25;;;15.44;62.97
71735;BME280;59577;52.122;5.406;2023-04-25T09:15:52;101593.91;;;16.36;61.81
71735;BME280;59577;52.122;5.406;2023-04-25T09:18:37;101602.53;;;17.17;64.14
71735;BME280;59577;52.122;5.406;2023-04-25T09:21:08;101599.00;;;17.68;60.21
71735;BME280;59577;52.122;5.406;2023-04-25T09:23:48;101587.91;;;17.46;57.92
71735;BME280;59577;52.122;5.406;2023-04-25T09:26:17;101600.09;;;16.67;55.43
71735;BME280;59577;52.122;5.406;2023-04-25T09:28:43;101612.22;;;15.75;58.10
71735;BME280;59577;52.122;5.406;2023-04-25T09:31:10;101608.91;;;15.12;56.65
71735;BME280;59577;52.122;5.406;2023-04-25T09:33:40;101615.38;;;14.84;56.78
71735;BME280;59577;52.122;5.406;2023-04-25T09:36:10;101607.09;;;14.58;58.11
71735;BME280;59577;52.122;5.406;2023-04-25T09:38:41;101610.97;;;14.37;58.76
71735;BME280;59577;52.122;5.406;2023-04-25T09:41:10;101616.63;;;14.28;56.84
71735;BME280;59577;52.122;5.406;2023-04-25T09:43:39;101621.94;;;14.21;58.90
71735;BME280;59577;52.122;5.406;2023-04-25T09:46:10;101632.50;;;13.71;60.11
71735;BME280;59577;52.122;5.406;2023-04-25T09:48:37;101643.25;;;13.04;61.04
71735;BME280;59577;52.122;5.406;2023-04-25T09:51:12;101649.75;;;12.43;61.30
71735;BME280;59577;52.122;5.406;2023-04-25T09:53:41;101658.97;;;12.14;62.38
71735;BME280;59577;52.122;5.406;2023-04-25T09:56:10;101658.66;;;11.91;62.37
71735;BME280;59577;52.122;5.406;2023-04-25T09:58:38;101669.13;;;11.80;62.41
71735;BME280;59577;52.122;5.406;2023-04-25T10:01:29;101671.06;;;11.92;62.89
71735;BME280;59577;52.122;5.406;2023-04-25T10:03:56;101674.47;;;12.01;62.33
71735;BME280;59577;52.122;5.406;2023-04-25T10:06:25;101680.00;;;12.17;62.31
71735;BME280;59577;52.122;5.406;2023-04-25T10:08:53;101677.09;;;12.50;62.72
71735;BME280;59577;52.122;5.406;2023-04-25T10:11:23;101661.66;;;13.11;63.11
71735;BME280;59577;52.122;5.406;2023-04-25T10:13:51;101672.28;;;13.60;60.40
71735;BME280;59577;52.122;5.406;2023-04-25T10:16:19;101660.28;;;13.97;58.18
71735;BME280;59577;52.122;5.406;2023-04-25T10:18:46;101659.97;;;14.18;58.93
71735;BME280;59577;52.122;5.406;2023-04-25T10:21:13;101658.50;;;14.40;60.57
71735;BME280;59577;52.122;5.406;2023-04-25T10:24:06;101651.31;;;14.51;62.48
71735;BME280;59577;52.122;5.406;2023-04-25T10:26:33;101658.03;;;14.73;60.28
71735;BME280;59577;52.122;5.406;2023-04-25T10:29:03;101657.59;;;15.14;59.38
71735;BME280;59577;52.122;5.406;2023-04-25T10:31:30;101663.31;;;15.28;57.99
71735;BME280;59577;52.122;5.406;2023-04-25T10:33:59;101664.16;;;15.09;57.16
71735;BME280;59577;52.122;5.406;2023-04-25T10:36:31;101657.81;;;15.05;55.21
71735;BME280;59577;52.122;5.406;2023-04-25T10:39:03;101655.97;;;15.09;52.57
71735;BME280;59577;52.122;5.406;2023-04-25T10:41:46;101655.03;;;15.01;53.20
71735;BME280;59577;52.122;5.406;2023-04-25T10:44:17;101660.13;;;15.03;51.76
71735;BME280;59577;52.122;5.406;2023-04-25T10:46:44;101656.22;;;15.23;53.63
71735;BME280;59577;52.122;5.406;2023-04-25T10:52:16;101662.28;;;15.86;55.71
71735;BME280;59577;52.122;5.406;2023-04-25T10:54:57;101661.34;;;16.28;55.54
71735;BME280;59577;52.122;5.406;2023-04-25T11:00:19;101660.06;;;16.86;53.09
71735;BME280;59577;52.122;5.406;2023-04-25T11:02:57;101664.19;;;16.39;53.01
71735;BME280;59577;52.122;5.406;2023-04-25T11:05:35;101663.94;;;15.91;53.29
71735;BME280;59577;52.122;5.406;2023-04-25T11:08:49;101673.97;;;15.37;55.54
71735;BME280;59577;52.122;5.406;2023-04-25T11:11:17;101677.06;;;14.93;56.55
71735;BME280;59577;52.122;5.406;2023-04-25T11:13:48;101687.84;;;14.46;57.16
71735;BME280;59577;52.122;5.406;2023-04-25T11:16:17;101689.34;;;13.92;58.71
71735;BME280;59577;52.122;5.406;2023-04-25T11:18:48;101692.56;;;14.14;59.26
71735;BME280;59577;52.122;5.406;2023-04-25T11:21:15;101702.75;;;14.01;59.01
71735;BME280;59577;52.122;5.406;2023-04-25T11:23:45;101702.97;;;13.45;59.10
71735;BME280;59577;52.122;5.406;2023-04-25T11:26:13;101706.81;;;13.00;59.42
71735;BME280;59577;52.122;5.406;2023-04-25T11:28:40;101702.72;;;12.77;60.00
71735;BME280;59577;52.122;5.406;2023-04-25T11:31:24;101712.03;;;12.64;59.14
71735;BME280;59577;52.122;5.406;2023-04-25T11:33:53;101719.97;;;12.57;59.50
71735;BME280;59577;52.122;5.406;2023-04-25T11:36:22;101713.66;;;12.40;60.43
71735;BME280;59577;52.122;5.406;2023-04-25T11:38:50;101718.97;;;12.37;60.00
71735;BME280;59577;52.122;5.406;2023-04-25T11:41:17;101718.75;;;12.30;59.59
71735;BME280;59577;52.122;5.406;2023-04-25T11:43:44;101717.66;;;12.18;59.37
71735;BME280;59577;52.122;5.406;2023-04-25T11:46:10;101714.38;;;12.13;59.41
71735;BME280;59577;52.122;5.406;2023-04-25T11:48:41;101719.78;;;12.13;58.93
71735;BME280;59577;52.122;5.406;2023-04-25T11:51:08;101718.66;;;12.26;58.49
71735;BME280;59577;52.122;5.406;2023-04-25T11:53:35;101725.84;;;12.59;58.59
71735;BME280;59577;52.122;5.406;2023-04-25T11:56:09;101719.25;;;12.72;58.35
71735;BME280;59577;52.122;5.406;2023-04-25T11:58:55;101719.50;;;13.24;59.87
71735;BME280;59577;52.122;5.406;2023-04-25T12:01:31;101714.84;;;13.84;58.73
71735;BME280;59577;52.122;5.406;2023-04-25T12:04:18;101709.84;;;14.22;56.43
71735;BME280;59577;52.122;5.406;2023-04-25T12:06:46;101709.38;;;14.36;58.80
71735;BME280;59577;52.122;5.406;2023-04-25T12:09:18;101715.47;;;14.64;58.14
71735;BME280;59577;52.122;5.406;2023-04-25T12:11:47;101704.88;;;14.43;57.50
71735;BME280;59577;52.122;5.406;2023-04-25T12:14:27;101723.59;;;13.94;57.89
71735;BME280;59577;52.122;5.406;2023-04-25T12:16:56;101724.06;;;13.64;59.56
71735;BME280;59577;52.122;5.406;2023-04-25T12:19:23;101719.81;;;13.50;59.02
71735;BME280;59577;52.122;5.406;2023-04-25T12:21:50;101734.72;;;13.41;59.39
71735;BME280;59577;52.122;5.406;2023-04-25T12:24:25;101734.63;;;13.37;55.97
71735;BME280;59577;52.122;5.406;2023-04-25T12:29:26;101752.19;;;13.40;57.69
71735;BME280;59577;52.122;5.406;2023-04-25T12:32:00;101745.97;;;13.27;55.86
71735;BME280;59577;52.122;5.406;2023-04-25T12:34:32;101747.47;;;13.24;57.65
71735;BME280;59577;52.122;5.406;2023-04-25T12:36:58;101736.84;;;13.19;57.47
71735;BME280;59577;52.122;5.406;2023-04-25T12:39:25;101736.91;;;13.35;57.30
71735;BME280;59577;52.122;5.406;2023-04-25T12:41:52;101741.94;;;13.49;54.06
71735;BME280;59577;52.122;5.406;2023-04-25T12:44:20;101737.44;;;13.41;55.58
71735;BME280;59577;52.122;5.406;2023-04-25T12:46:47;101729.41;;;13.60;54.39
71735;BME280;59577;52.122;5.406;2023-04-25T12:49:14;101739.28;;;13.52;55.28
71735;BME280;59577;52.122;5.406;2023-04-25T12:51:44;101743.84;;;13.20;55.87
71735;BME280;59577;52.122;5.406;2023-04-25T12:54:11;101743.34;;;13.30;55.60
71735;BME280;59577;52.122;5.406;2023-04-25T12:56:38;101732.28;;;13.51;52.26
71735;BME280;59577;52.122;5.406;2023-04-25T12:59:04;101721.16;;;13.72;53.57
71735;BME280;59577;52.122;5.406;2023-04-25T13:01:31;101723.72;;;14.17;53.31
71735;BME280;59577;52.122;5.406;2023-04-25T13:04:01;101728.88;;;14.38;53.50
71735;BME280;59577;52.122;5.406;2023-04-25T13:06:28;101723.25;;;14.46;53.66
71735;BME280;59577;52.122;5.406;2023-04-25T13:08:56;101721.44;;;14.35;53.85